createdAt,value
2018-08-07T00:00:21.602Z,2.60
2018-08-07T00:02:51.880Z,2.77
2018-08-07T00:05:21.233Z,2.80
2018-08-07T00:07:53.460Z,2.33
2018-08-07T00:10:24.041Z,3.10
2018-08-07T00:12:53.919Z,2.93
2018-08-07T00:15:27.146Z,2.80
2018-08-07T00:17:56.418Z,2.70
2018-08-07T00:20:25.730Z,2.63
2018-08-07T00:22:55.342Z,3.50
2018-08-07T00:25:24.637Z,2.87
2018-08-07T00:27:53.976Z,2.10
2018-08-07T00:30:23.720Z,2.57
2018-08-07T00:32:52.995Z,3.13
2018-08-07T00:35:22.303Z,3.27
2018-08-07T00:37:51.586Z,3.07
2018-08-07T00:40:33.121Z,3.30
2018-08-07T00:43:02.460Z,2.57
2018-08-07T00:45:31.715Z,2.70
2018-08-07T00:48:01.159Z,3.03
2018-08-07T00:50:30.473Z,2.60
2018-08-07T00:52:59.989Z,2.67
2018-08-07T00:55:29.287Z,3.57
2018-08-07T00:57:58.555Z,2.80
2018-08-07T01:00:27.919Z,2.73
2018-08-07T01:02:57.157Z,2.90
2018-08-07T01:05:26.550Z,2.97
2018-08-07T01:07:55.798Z,2.83
2018-08-07T01:10:25.075Z,3.10
2018-08-07T01:12:54.317Z,2.47
2018-08-07T01:15:23.591Z,2.70
2018-08-07T01:17:52.839Z,2.80
2018-08-07T01:20:23.971Z,2.70
2018-08-07T01:22:53.297Z,2.97
2018-08-07T01:25:25.155Z,2.73
2018-08-07T01:27:54.586Z,2.90
2018-08-07T01:30:26.666Z,2.87
2018-08-07T01:32:57.232Z,3.37
2018-08-07T01:35:27.613Z,2.60
2018-08-07T01:37:57.267Z,3.07
2018-08-07T01:40:26.934Z,2.70
2018-08-07T01:42:56.857Z,2.80
2018-08-07T01:45:26.218Z,3.03
2018-08-07T01:47:55.960Z,2.83
2018-08-07T01:50:25.630Z,3.07
2018-08-07T01:52:54.969Z,3.20
2018-08-07T01:55:26.621Z,2.70
2018-08-07T01:57:56.167Z,2.73
2018-08-07T02:00:25.610Z,2.77
2018-08-07T02:02:55.386Z,3.20
2018-08-07T02:05:25.470Z,2.63
2018-08-07T02:07:55.034Z,3.03
2018-08-07T02:10:24.683Z,3.10
2018-08-07T02:12:54.193Z,3.13
2018-08-07T02:15:23.659Z,3.27
2018-08-07T02:17:53.021Z,3.30
2018-08-07T02:20:22.515Z,2.67
2018-08-07T02:22:51.987Z,2.90
2018-08-07T02:25:21.868Z,2.63
2018-08-07T02:27:51.463Z,3.17
2018-08-07T02:30:20.846Z,2.60
2018-08-07T02:32:50.673Z,2.73
2018-08-07T02:35:20.548Z,2.70
2018-08-07T02:37:50.103Z,3.50
2018-08-07T02:40:19.562Z,2.43
2018-08-07T02:42:49.112Z,2.90
2018-08-07T02:45:19.687Z,3.27
2018-08-07T02:47:49.953Z,3.03
2018-08-07T02:50:20.957Z,3.07
2018-08-07T02:52:50.363Z,2.90
2018-08-07T02:55:19.720Z,2.90
2018-08-07T02:57:49.104Z,3.60
2018-08-07T03:00:21.792Z,3.20
2018-08-07T03:02:51.343Z,3.20
2018-08-07T03:05:21.516Z,3.67
2018-08-07T03:07:51.432Z,3.23
2018-08-07T03:10:21.035Z,3.30
2018-08-07T03:12:50.358Z,3.30
2018-08-07T03:15:20.706Z,3.60
2018-08-07T03:17:50.587Z,3.17
2018-08-07T03:20:21.423Z,3.87
2018-08-07T03:22:51.008Z,2.80
2018-08-07T03:25:20.527Z,3.30
2018-08-07T03:27:50.216Z,3.63
2018-08-07T03:30:20.897Z,3.70
2018-08-07T03:32:50.263Z,3.23
2018-08-07T03:35:19.755Z,3.53
2018-08-07T03:37:49.276Z,3.63
2018-08-07T03:40:19.960Z,4.00
2018-08-07T03:42:49.667Z,3.60
2018-08-07T03:45:19.745Z,2.87
2018-08-07T03:47:49.784Z,3.00
2018-08-07T03:50:19.630Z,3.70
2018-08-07T03:52:49.175Z,2.70
2018-08-07T03:55:19.915Z,3.40
2018-08-07T03:57:49.615Z,3.47
2018-08-07T04:00:21.526Z,4.80
2018-08-07T04:02:51.271Z,3.60
2018-08-07T04:05:20.762Z,3.47
2018-08-07T04:07:50.099Z,3.07
2018-08-07T04:10:20.022Z,3.03
2018-08-07T04:12:49.417Z,3.33
2018-08-07T04:15:19.565Z,3.30
2018-08-07T04:17:49.017Z,3.30
2018-08-07T04:20:19.367Z,3.90
2018-08-07T04:22:49.061Z,3.80
2018-08-07T04:25:18.621Z,3.40
2018-08-07T04:27:48.195Z,3.47
2018-08-07T04:30:19.015Z,3.30
2018-08-07T04:32:49.078Z,3.47
2018-08-07T04:35:18.830Z,3.13
2018-08-07T04:37:48.526Z,3.50
2018-08-07T04:40:17.898Z,4.10
2018-08-07T04:42:47.199Z,3.97
2018-08-07T04:45:17.874Z,3.50
2018-08-07T04:47:47.919Z,4.00
2018-08-07T04:50:17.489Z,3.80
2018-08-07T04:52:46.942Z,3.30
2018-08-07T04:55:16.759Z,4.13
2018-08-07T04:57:46.402Z,3.90
2018-08-07T05:00:17.906Z,3.80
2018-08-07T05:02:47.970Z,3.50
2018-08-07T05:05:17.865Z,3.27
2018-08-07T05:07:47.552Z,2.90
2018-08-07T05:10:18.185Z,3.07
2018-08-07T05:12:47.911Z,3.60
2018-08-07T05:15:17.993Z,3.70
2018-08-07T05:17:48.276Z,4.10
2018-08-07T05:20:17.892Z,3.87
2018-08-07T05:22:47.223Z,3.63
2018-08-07T05:25:16.690Z,3.00
2018-08-07T05:27:46.061Z,2.80
2018-08-07T05:30:17.005Z,3.50
2018-08-07T05:32:46.679Z,3.57
2018-08-07T05:35:16.390Z,3.30
2018-08-07T05:37:45.739Z,4.33
2018-08-07T05:40:15.479Z,3.63
2018-08-07T05:42:44.882Z,3.80
2018-08-07T05:45:16.483Z,3.50
2018-08-07T05:47:45.837Z,3.67
2018-08-07T05:50:16.782Z,3.43
2018-08-07T05:52:46.013Z,2.90
2018-08-07T05:55:15.433Z,3.10
2018-08-07T05:57:44.924Z,3.73
2018-08-07T06:00:18.739Z,3.23
2018-08-07T06:02:49.115Z,3.20
2018-08-07T06:05:18.823Z,3.70
2018-08-07T06:07:49.195Z,2.83
2018-08-07T06:10:18.449Z,3.50
2018-08-07T06:12:47.854Z,2.80
2018-08-07T06:15:17.993Z,3.43
2018-08-07T06:17:48.080Z,3.27
2018-08-07T06:20:17.438Z,3.30
2018-08-07T06:22:46.781Z,3.40
2018-08-07T06:25:16.171Z,2.80
2018-08-07T06:27:45.531Z,2.53
2018-08-07T06:30:17.685Z,2.83
2018-08-07T06:32:48.394Z,2.73
2018-08-07T06:35:18.462Z,2.80
2018-08-07T06:37:47.983Z,10.23
2018-08-07T06:40:17.301Z,3.00
2018-08-07T06:42:46.676Z,3.20
2018-08-07T06:45:17.886Z,2.70
2018-08-07T06:47:47.307Z,3.10
2018-08-07T06:50:18.309Z,2.40
2018-08-07T06:52:48.293Z,2.50
2018-08-07T06:55:17.747Z,3.07
2018-08-07T06:57:47.101Z,2.70
2018-08-07T07:00:20.004Z,2.97
2018-08-07T07:02:49.673Z,2.50
2018-08-07T07:05:19.335Z,3.00
2018-08-07T07:07:48.835Z,3.00
2018-08-07T07:10:18.206Z,2.37
2018-08-07T07:12:47.976Z,2.73
2018-08-07T07:15:18.125Z,2.47
2018-08-07T07:17:48.319Z,2.17
2018-08-07T07:20:19.048Z,2.43
2018-08-07T07:22:49.706Z,2.50
2018-08-07T07:25:18.961Z,2.33
2018-08-07T07:27:48.435Z,2.80
2018-08-07T07:30:20.695Z,2.70
2018-08-07T07:32:51.419Z,2.90
2018-08-07T07:35:20.871Z,3.13
2018-08-07T07:37:50.275Z,2.97
2018-08-07T07:40:19.643Z,2.67
2018-08-07T07:42:48.935Z,2.40
2018-08-07T07:45:19.259Z,2.67
2018-08-07T07:47:48.580Z,2.50
2018-08-07T07:50:20.636Z,2.70
2018-08-07T07:52:50.027Z,2.70
2018-08-07T07:55:20.109Z,2.30
2018-08-07T07:57:49.503Z,2.40
2018-08-07T08:00:26.187Z,2.63
2018-08-07T08:02:55.496Z,2.57
2018-08-07T08:05:26.427Z,2.40
2018-08-07T08:07:56.173Z,2.77
2018-08-07T08:10:25.974Z,2.80
2018-08-07T08:12:55.420Z,2.33
2018-08-07T08:15:24.756Z,2.30
2018-08-07T08:17:54.019Z,2.30
2018-08-07T08:20:25.495Z,2.40
2018-08-07T08:22:55.762Z,2.70
2018-08-07T08:25:25.068Z,2.40
2018-08-07T08:27:54.384Z,2.43
2018-08-07T08:30:23.755Z,2.50
2018-08-07T08:32:53.012Z,2.23
2018-08-07T08:35:22.270Z,2.30
2018-08-07T08:37:51.523Z,2.13
2018-08-07T08:40:23.739Z,2.60
2018-08-07T08:42:53.273Z,2.40
2018-08-07T08:45:24.812Z,2.30
2018-08-07T08:47:57.494Z,2.17
2018-08-07T08:50:26.926Z,2.33
2018-08-07T08:52:56.251Z,1.40
2018-08-07T08:55:25.491Z,2.20
2018-08-07T08:57:55.169Z,2.37
2018-08-07T09:00:30.885Z,2.03
2018-08-07T09:03:02.144Z,1.87
2018-08-07T09:05:32.393Z,2.37
2018-08-07T09:08:01.652Z,1.93
2018-08-07T09:10:32.621Z,1.90
2018-08-07T09:13:02.876Z,1.90
2018-08-07T09:15:32.267Z,2.00
2018-08-07T09:18:01.671Z,1.70
2018-08-07T09:20:32.700Z,1.90
2018-08-07T09:23:02.200Z,1.50
2018-08-07T09:25:32.423Z,1.50
2018-08-07T09:28:01.540Z,2.23
2018-08-07T09:30:31.545Z,1.40
2018-08-07T09:33:01.205Z,1.90
2018-08-07T09:35:30.429Z,1.60
2018-08-07T09:37:59.957Z,1.63
2018-08-07T09:40:29.244Z,1.43
2018-08-07T09:42:58.867Z,1.60
2018-08-07T09:45:30.574Z,1.80
2018-08-07T09:48:00.863Z,2.23
2018-08-07T09:50:30.061Z,1.50
2018-08-07T09:52:59.344Z,1.60
2018-08-07T09:55:28.534Z,1.60
2018-08-07T09:57:57.842Z,1.83
2018-08-07T10:00:32.573Z,2.00
2018-08-07T10:03:06.375Z,1.60
2018-08-07T10:05:35.670Z,1.90
2018-08-07T10:08:04.869Z,1.50
2018-08-07T10:10:34.269Z,1.73
2018-08-07T10:13:03.716Z,1.70
2018-08-07T10:15:32.996Z,2.23
2018-08-07T10:18:02.319Z,2.00
2018-08-07T10:20:31.856Z,1.77
2018-08-07T10:23:01.100Z,1.43
2018-08-07T10:25:30.380Z,1.80
2018-08-07T10:27:59.664Z,1.97
2018-08-07T10:30:29.450Z,1.50
2018-08-07T10:32:58.700Z,1.97
2018-08-07T10:35:28.108Z,1.80
2018-08-07T10:37:57.381Z,1.63
2018-08-07T10:40:27.851Z,2.00
2018-08-07T10:42:57.368Z,1.77
2018-08-07T10:45:27.119Z,2.60
2018-08-07T10:47:56.403Z,1.80
2018-08-07T10:51:01.204Z,2.00
2018-08-07T10:53:30.485Z,2.73
2018-08-07T10:55:59.762Z,1.73
2018-08-07T10:58:29.156Z,2.10
2018-08-07T11:00:58.445Z,2.20
2018-08-07T11:03:27.739Z,2.10
2018-08-07T11:05:57.043Z,2.27
2018-08-07T11:08:26.301Z,3.03
2018-08-07T11:10:55.563Z,2.27
2018-08-07T11:13:24.847Z,2.23
2018-08-07T11:15:54.154Z,2.20
2018-08-07T11:18:23.457Z,1.97
2018-08-07T11:20:53.354Z,2.30
2018-08-07T11:23:22.780Z,2.60
2018-08-07T11:25:52.214Z,2.00
2018-08-07T11:28:21.439Z,1.87
2018-08-07T11:30:50.973Z,1.83
2018-08-07T11:33:20.187Z,2.00
2018-08-07T11:35:49.458Z,2.40
2018-08-07T11:38:18.821Z,2.60
2018-08-07T11:40:48.161Z,2.60
2018-08-07T11:43:17.515Z,2.40
2018-08-07T11:45:46.737Z,2.50
2018-08-07T11:48:16.002Z,2.93
2018-08-07T11:50:45.265Z,2.33
2018-08-07T11:53:14.517Z,2.43
2018-08-07T11:55:43.823Z,3.43
2018-08-07T11:58:13.093Z,2.40
2018-08-07T12:00:42.317Z,2.80
2018-08-07T12:03:12.662Z,2.30
2018-08-07T12:05:42.205Z,2.40
2018-08-07T12:08:11.420Z,2.50
2018-08-07T12:10:40.645Z,3.47
2018-08-07T12:13:09.896Z,3.00
2018-08-07T12:15:39.309Z,2.20
2018-08-07T12:18:08.716Z,2.60
2018-08-07T12:20:38.234Z,2.67
2018-08-07T12:23:08.202Z,2.63
2018-08-07T12:25:37.583Z,2.43
2018-08-07T12:28:07.557Z,2.90
2018-08-07T12:30:36.876Z,3.00
2018-08-07T12:33:06.664Z,2.77
2018-08-07T12:35:36.115Z,2.43
2018-08-07T12:38:05.383Z,2.40
2018-08-07T12:40:34.613Z,2.60
2018-08-07T12:43:04.629Z,2.73
2018-08-07T12:45:33.881Z,3.13
2018-08-07T12:48:03.104Z,2.57
2018-08-07T12:50:32.479Z,2.60
2018-08-07T12:53:01.785Z,2.70
2018-08-07T12:55:31.063Z,2.73
2018-08-07T12:58:00.341Z,2.37
2018-08-07T13:00:32.112Z,2.30
2018-08-07T13:03:01.427Z,2.47
2018-08-07T13:05:30.816Z,2.40
2018-08-07T13:08:00.045Z,2.97
2018-08-07T13:10:29.736Z,2.20
2018-08-07T13:12:58.968Z,2.53
2018-08-07T13:15:28.199Z,2.93
2018-08-07T13:17:57.431Z,2.97
2018-08-07T13:20:26.693Z,3.00
2018-08-07T13:22:55.908Z,2.60
2018-08-07T13:25:25.180Z,2.77
2018-08-07T13:27:54.603Z,2.57
2018-08-07T13:30:25.880Z,2.57
2018-08-07T13:32:55.524Z,2.47
2018-08-07T13:35:24.791Z,2.50
2018-08-07T13:37:54.280Z,2.90
2018-08-07T13:40:24.729Z,2.70
2018-08-07T13:42:53.989Z,3.00
2018-08-07T13:45:25.023Z,2.40
2018-08-07T13:47:54.289Z,2.90
2018-08-07T13:50:25.878Z,2.70
2018-08-07T13:52:55.291Z,2.87
2018-08-07T13:55:25.629Z,3.10
2018-08-07T13:57:55.054Z,2.77
2018-08-07T14:00:28.586Z,3.00
2018-08-07T14:02:58.898Z,2.50
2018-08-07T14:05:29.215Z,2.90
2018-08-07T14:07:59.012Z,2.60
2018-08-07T14:10:29.641Z,3.00
2018-08-07T14:12:59.164Z,2.73
2018-08-07T14:15:29.609Z,3.10
2018-08-07T14:17:58.922Z,3.13
2018-08-07T14:20:28.146Z,3.00
2018-08-07T14:22:57.796Z,3.00
2018-08-07T14:25:28.576Z,3.10
2018-08-07T14:27:58.054Z,2.40
2018-08-07T14:30:30.676Z,2.97
2018-08-07T14:33:03.440Z,2.90
2018-08-07T14:35:32.724Z,2.60
2018-08-07T14:38:02.022Z,3.27
2018-08-07T14:40:31.503Z,2.90
2018-08-07T14:43:00.862Z,3.20
2018-08-07T14:45:30.519Z,3.30
2018-08-07T14:48:00.288Z,3.23
2018-08-07T14:50:30.724Z,3.27
2018-08-07T14:52:59.980Z,3.80
2018-08-07T14:55:29.213Z,3.60
2018-08-07T14:57:58.480Z,2.97
2018-08-07T15:00:29.095Z,2.93
2018-08-07T15:02:58.451Z,3.40
2018-08-07T15:05:27.754Z,2.93
2018-08-07T15:07:57.095Z,3.00
2018-08-07T15:10:27.498Z,3.33
2018-08-07T15:12:56.828Z,3.20
2018-08-07T15:15:28.813Z,3.13
2018-08-07T15:17:58.107Z,3.50
2018-08-07T15:23:15.048Z,2.73
2018-08-07T15:25:44.350Z,3.60
2018-08-07T15:28:13.807Z,3.00
2018-08-07T15:30:43.416Z,3.47
2018-08-07T15:33:13.813Z,3.40
2018-08-07T15:35:43.082Z,2.87
2018-08-07T15:38:12.385Z,3.17
2018-08-07T15:40:41.662Z,3.57
2018-08-07T15:43:11.062Z,3.33
2018-08-07T15:45:40.365Z,3.30
2018-08-07T15:48:09.585Z,3.17
2018-08-07T15:50:38.851Z,3.60
2018-08-07T15:53:08.289Z,3.13
2018-08-07T15:55:40.445Z,3.13
2018-08-07T15:58:09.951Z,2.67
2018-08-07T16:00:39.168Z,3.10
2018-08-07T16:03:08.415Z,3.30
2018-08-07T16:05:37.644Z,2.93
2018-08-07T16:08:06.898Z,3.07
2018-08-07T16:10:36.143Z,3.40
2018-08-07T16:13:05.595Z,3.20
2018-08-07T16:15:34.825Z,2.90
2018-08-07T16:18:04.065Z,3.50
2018-08-07T16:20:33.339Z,3.07
2018-08-07T16:23:02.563Z,3.70
2018-08-07T16:25:31.968Z,3.70
2018-08-07T16:28:01.363Z,3.40
2018-08-07T16:30:30.657Z,3.70
2018-08-07T16:32:59.945Z,3.37
2018-08-07T16:35:29.331Z,3.43
2018-08-07T16:37:58.515Z,3.70
2018-08-07T16:40:27.819Z,3.47
2018-08-07T16:42:57.139Z,3.43
2018-08-07T16:45:26.521Z,3.77
2018-08-07T16:47:55.776Z,3.00
2018-08-07T16:50:28.108Z,4.00
2018-08-07T16:52:58.319Z,3.50
2018-08-07T16:55:29.813Z,3.97
2018-08-07T16:57:59.197Z,3.70
2018-08-07T17:00:28.469Z,4.03
2018-08-07T17:02:57.916Z,4.33
2018-08-07T17:05:27.282Z,3.93
2018-08-07T17:07:56.605Z,4.07
2018-08-07T17:10:28.194Z,3.73
2018-08-07T17:12:57.547Z,3.60
2018-08-07T17:15:26.918Z,3.70
2018-08-07T17:17:57.249Z,4.30
2018-08-07T17:20:27.695Z,4.40
2018-08-07T17:22:56.968Z,4.60
2018-08-07T17:25:26.273Z,5.23
2018-08-07T17:27:55.724Z,5.07
2018-08-07T17:30:27.650Z,5.30
2018-08-07T17:32:57.148Z,4.90
2018-08-07T17:35:27.541Z,4.30
2018-08-07T17:37:59.286Z,5.27
2018-08-07T17:40:29.314Z,8.47
2018-08-07T17:42:58.976Z,6.07
2018-08-07T17:45:28.312Z,9.27
2018-08-07T17:47:57.740Z,5.60
2018-08-07T17:50:27.654Z,4.30
2018-08-07T17:52:58.945Z,5.00
2018-08-07T17:55:28.332Z,5.30
2018-08-07T17:57:59.598Z,5.63
2018-08-07T18:00:29.120Z,9.00
2018-08-07T18:02:59.496Z,6.10
2018-08-07T18:05:28.876Z,5.80
2018-08-07T18:07:58.745Z,7.30
2018-08-07T18:10:28.298Z,6.07
2018-08-07T18:12:57.819Z,5.70
2018-08-07T18:15:27.175Z,6.73
2018-08-07T18:17:56.571Z,7.37
2018-08-07T18:20:27.305Z,5.20
2018-08-07T18:22:56.742Z,5.07
2018-08-07T18:25:26.270Z,6.20
2018-08-07T18:27:55.595Z,6.07
2018-08-07T18:30:25.817Z,8.13
2018-08-07T18:32:55.192Z,6.60
2018-08-07T18:35:25.827Z,7.00
2018-08-07T18:37:55.252Z,5.57
2018-08-07T18:40:24.557Z,6.03
2018-08-07T18:42:54.021Z,6.13
2018-08-07T18:45:23.803Z,6.20
2018-08-07T18:47:53.394Z,6.83
2018-08-07T18:50:23.717Z,6.70
2018-08-07T18:52:53.110Z,7.80
2018-08-07T18:55:22.470Z,6.20
2018-08-07T18:57:52.203Z,7.00
2018-08-07T19:00:24.281Z,16.80
2018-08-07T19:02:53.934Z,17.83
2018-08-07T19:05:24.255Z,20.50
2018-08-07T19:07:53.626Z,19.57
2018-08-07T19:10:22.935Z,13.73
2018-08-07T19:12:52.395Z,14.13
2018-08-07T19:15:22.207Z,12.00
2018-08-07T19:17:51.705Z,10.80
2018-08-07T19:20:22.427Z,10.00
2018-08-07T19:22:52.007Z,9.70
2018-08-07T19:25:21.565Z,9.57
2018-08-07T19:27:51.109Z,8.37
2018-08-07T19:30:22.299Z,8.87
2018-08-07T19:32:51.804Z,8.70
2018-08-07T19:35:21.808Z,7.53
2018-08-07T19:37:51.966Z,7.50
2018-08-07T19:40:21.876Z,7.80
2018-08-07T19:42:51.815Z,7.27
2018-08-07T19:45:21.834Z,8.83
2018-08-07T19:47:51.540Z,7.77
2018-08-07T19:50:22.260Z,7.90
2018-08-07T19:52:51.923Z,7.03
2018-08-07T19:55:22.857Z,6.90
2018-08-07T19:57:52.630Z,7.03
2018-08-07T20:00:26.312Z,7.03
2018-08-07T20:02:57.797Z,6.97
2018-08-07T20:05:27.660Z,7.60
2018-08-07T20:07:57.794Z,6.10
2018-08-07T20:10:27.524Z,5.77
2018-08-07T20:12:57.488Z,5.40
2018-08-07T20:15:28.424Z,5.30
2018-08-07T20:17:58.672Z,6.40
2018-08-07T20:20:28.273Z,5.87
2018-08-07T20:22:58.724Z,5.83
2018-08-07T20:25:28.547Z,5.43
2018-08-07T20:27:58.722Z,5.10
2018-08-07T20:30:28.661Z,5.93
2018-08-07T20:32:59.296Z,5.50
2018-08-07T20:35:29.090Z,4.80
2018-08-07T20:37:58.781Z,5.27
2018-08-07T20:40:28.974Z,5.00
2018-08-07T20:43:00.354Z,5.30
2018-08-07T20:45:30.213Z,4.90
2018-08-07T20:48:00.175Z,4.83
2018-08-07T20:50:29.845Z,4.33
2018-08-07T20:52:59.856Z,4.33
2018-08-07T20:55:29.665Z,4.97
2018-08-07T20:57:59.217Z,4.47
2018-08-07T21:00:29.166Z,4.67
2018-08-07T21:02:58.561Z,3.90
2018-08-07T21:05:28.274Z,4.80
2018-08-07T21:07:58.494Z,4.80
2018-08-07T21:10:29.021Z,4.37
2018-08-07T21:12:58.558Z,4.23
2018-08-07T21:15:27.972Z,4.97
2018-08-07T21:17:57.457Z,4.40
2018-08-07T21:20:26.994Z,4.83
2018-08-07T21:22:56.336Z,4.67
2018-08-07T21:25:25.698Z,4.77
2018-08-07T21:27:57.574Z,4.70
2018-08-07T21:30:30.562Z,4.57
2018-08-07T21:33:00.125Z,4.90
2018-08-07T21:35:29.470Z,4.83
2018-08-07T21:37:58.843Z,4.50
2018-08-07T21:40:28.380Z,5.77
2018-08-07T21:42:57.939Z,5.50
2018-08-07T21:45:27.371Z,5.00
2018-08-07T21:47:57.263Z,4.67
2018-08-07T21:50:27.377Z,5.20
2018-08-07T21:52:56.722Z,5.80
2018-08-07T21:55:26.295Z,5.00
2018-08-07T21:57:55.748Z,5.40
2018-08-07T22:00:47.683Z,4.93
2018-08-07T22:03:16.987Z,5.50
2018-08-07T22:05:46.349Z,5.30
2018-08-07T22:08:16.714Z,4.93
2018-08-07T22:10:46.072Z,4.77
2018-08-07T22:13:15.836Z,5.13
2018-08-07T22:15:45.158Z,5.53
2018-08-07T22:18:14.511Z,5.33
2018-08-07T22:20:43.857Z,5.67
2018-08-07T22:23:13.274Z,5.43
2018-08-07T22:25:42.578Z,5.67
2018-08-07T22:28:12.046Z,5.90
2018-08-07T22:30:41.676Z,5.43
2018-08-07T22:33:11.214Z,5.87
2018-08-07T22:35:40.626Z,6.23
2018-08-07T22:38:10.044Z,5.80
2018-08-07T22:40:39.654Z,6.37
2018-08-07T22:43:09.197Z,6.30
2018-08-07T22:45:38.678Z,6.33
2018-08-07T22:48:09.486Z,6.80
2018-08-07T22:50:38.922Z,6.27
2018-08-07T22:53:08.555Z,6.07
2018-08-07T22:55:38.024Z,6.70
2018-08-07T22:58:07.583Z,6.93
2018-08-07T23:00:37.271Z,6.37
2018-08-07T23:03:07.931Z,6.43
2018-08-07T23:05:38.130Z,6.40
2018-08-07T23:08:08.010Z,6.90
2018-08-07T23:10:37.876Z,7.23
2018-08-07T23:13:08.208Z,6.23
2018-08-07T23:15:38.150Z,7.17
2018-08-07T23:18:07.823Z,6.83
2018-08-07T23:20:37.718Z,6.47
2018-08-07T23:23:07.453Z,6.10
2018-08-07T23:25:37.277Z,7.73
2018-08-07T23:28:06.972Z,6.90
2018-08-07T23:30:36.807Z,7.00
2018-08-07T23:33:06.395Z,7.07
2018-08-07T23:35:36.689Z,6.73
2018-08-07T23:38:06.437Z,6.60
2018-08-07T23:40:36.136Z,6.80
2018-08-07T23:43:05.906Z,6.90
2018-08-07T23:45:35.669Z,6.57
2018-08-07T23:48:05.258Z,6.60
2018-08-07T23:50:35.092Z,6.87
2018-08-07T23:53:04.427Z,6.80
2018-08-07T23:55:33.713Z,6.93
2018-08-07T23:58:03.291Z,6.67
